Time;durP1;ratioP1;P1;durP2;ratioP2;P2;SDS_P1;SDS_P2;PMS_P1;PMS_P2;Temp;Humidity;BMP_temperature;BMP_pressure;BME280_temperature;BME280_humidity;BME280_pressure;Samples;Min_cycle;Max_cycle;Signal;HPM_P1;HPM_P2
2023/11/18 00:01:08;;;;;;;2.53;0.68;;;;;;;;;;5095386;28;20044;-73
2023/11/18 00:04:16;;;;;;;1.35;0.60;;;;;;;;;;5094927;28;20036;-72
2023/11/18 00:07:20;;;;;;;3.40;0.90;;;;;;;;;;5094780;28;20040;-73
2023/11/18 00:10:24;;;;;;;2.75;0.80;;;;;;;;;;5095057;28;20028;-72
2023/11/18 00:13:28;;;;;;;2.90;0.80;;;;;;;;;;5094829;28;20040;-72
2023/11/18 00:16:34;;;;;;;1.73;0.85;;;;;;;;;;5094769;28;20032;-73
2023/11/18 00:19:38;;;;;;;1.25;0.55;;;;;;;;;;5094622;28;20048;-73
2023/11/18 00:22:43;;;;;;;0.80;0.70;;;;;;;;;;5094703;28;20021;-73
2023/11/18 00:25:47;;;;;;;3.30;0.68;;;;;;;;;;5095301;28;20040;-73
2023/11/18 00:28:52;;;;;;;2.22;0.82;;;;;;;;;;5094463;28;20040;-73
2023/11/18 00:31:56;;;;;;;1.42;0.70;;;;;;;;;;5094698;28;20032;-72
2023/11/18 00:35:00;;;;;;;1.65;0.70;;;;;;;;;;5094620;28;20040;-72
2023/11/18 00:38:05;;;;;;;2.42;0.82;;;;;;;;;;5081984;28;20044;-72
2023/11/18 00:41:09;;;;;;;4.88;1.13;;;;;;;;;;5082064;28;20488;-71
2023/11/18 00:44:13;;;;;;;3.22;0.68;;;;;;;;;;5094442;28;20032;-73
2023/11/18 00:47:17;;;;;;;5.45;0.80;;;;;;;;;;5094339;28;20036;-73
2023/11/18 00:50:22;;;;;;;1.35;0.50;;;;;;;;;;5094326;28;20036;-73
2023/11/18 00:53:26;;;;;;;2.75;0.90;;;;;;;;;;5081886;28;20040;-73
2023/11/18 00:56:31;;;;;;;1.65;0.70;;;;;;;;;;5094186;28;20040;-73
2023/11/18 00:59:35;;;;;;;1.40;0.60;;;;;;;;;;5093590;28;20393;-74
2023/11/18 01:02:39;;;;;;;3.63;0.50;;;;;;;;;;5093883;28;20032;-73
2023/11/18 01:05:44;;;;;;;1.77;0.70;;;;;;;;;;5081338;28;20044;-73
2023/11/18 01:08:49;;;;;;;9.82;0.70;;;;;;;;;;5093982;28;20052;-72
2023/11/18 01:11:53;;;;;;;2.70;0.70;;;;;;;;;;5081317;28;20148;-71
2023/11/18 01:14:57;;;;;;;2.28;0.70;;;;;;;;;;5093880;28;20679;-73
2023/11/18 01:18:02;;;;;;;1.77;0.65;;;;;;;;;;5080921;28;20036;-73
2023/11/18 01:21:08;;;;;;;8.40;0.73;;;;;;;;;;5081322;28;20380;-72
2023/11/18 01:24:13;;;;;;;2.00;0.70;;;;;;;;;;5093822;28;20032;-72
2023/11/18 01:27:19;;;;;;;2.00;0.80;;;;;;;;;;5093743;28;20035;-72
2023/11/18 01:30:23;;;;;;;3.83;0.82;;;;;;;;;;5093509;28;20040;-72
2023/11/18 01:33:28;;;;;;;2.90;0.75;;;;;;;;;;5080900;28;20032;-73
2023/11/18 01:36:32;;;;;;;5.05;2.08;;;;;;;;;;5093322;28;20032;-73
2023/11/18 01:39:36;;;;;;;6.32;0.90;;;13.70;84.40;;;;;;5080388;28;20392;-74
2023/11/18 01:42:46;;;;;;;4.47;0.70;;;12.80;84.20;;;;;;5093273;28;20047;-73
2023/11/18 01:45:50;;;;;;;4.32;0.73;;;;;;;;;;5080745;28;20043;-73
2023/11/18 01:48:54;;;;;;;5.00;0.80;;;;;;;;;;5093137;28;20043;-73
2023/11/18 01:52:01;;;;;;;2.97;0.60;;;;;;;;;;5093233;28;20036;-73
2023/11/18 01:55:06;;;;;;;4.38;0.60;;;;;;;;;;5093140;28;20032;-72
2023/11/18 01:58:10;;;;;;;2.45;0.60;;;;;;;;;;5080307;28;20032;-73
2023/11/18 02:01:17;;;;;;;3.42;0.60;;;;;;;;;;5068851;28;20048;-73
2023/11/18 02:04:21;;;;;;;0.85;0.57;;;;;;;;;;5080118;28;20377;-73
2023/11/18 02:07:26;;;;;;;3.83;0.60;;;;;;;;;;5056104;28;20053;-73
2023/11/18 02:10:48;;;;;;;1.08;0.50;;;14.10;84.60;;;;;;5051589;28;20045;-73
2023/11/18 02:13:58;;;;;;;2.17;0.52;;;16.30;84.00;;;;;;5052291;28;20040;-72
2023/11/18 02:17:03;;;;;;;2.25;0.45;;;;;;;;;;5051564;28;20393;-73
2023/11/18 02:20:15;;;;;;;1.52;0.40;;;;;;;;;;5051107;28;20465;-72
2023/11/18 02:23:21;;;;;;;;;;;14.00;81.70;;;;;;5063548;28;20362;-73
2023/11/18 02:26:26;;;;;;;0.93;0.50;;;;;;;;;;5052192;28;20376;-72
2023/11/18 02:29:45;;;;;;;1.77;0.47;;;14.60;82.10;;;;;;5050902;28;20041;-72
2023/11/18 02:33:05;;;;;;;4.20;0.65;;;16.40;82.30;;;;;;5051281;28;20044;-72
2023/11/18 02:36:15;;;;;;;0.90;0.43;;;14.20;80.10;;;;;;5062668;28;20071;-73
2023/11/18 02:39:28;;;;;;;1.38;0.40;;;12.90;78.80;;;;;;5051730;28;20060;-73
2023/11/18 02:42:33;;;;;;;1.35;0.40;;;;;;;;;;5051160;28;20032;-73
2023/11/18 02:45:41;;;;;;;3.63;0.63;;;;;;;;;;5051544;28;20041;-73
2023/11/18 02:48:46;;;;;;;1.30;0.60;;;;;;;;;;5051812;28;20517;-74
2023/11/18 02:51:50;;;;;;;4.00;0.60;;;;;;;;;;5050930;28;20049;-74
2023/11/18 02:54:54;;;;;;;3.80;0.50;;;;;;;;;;5051544;28;20032;-71
2023/11/18 02:57:58;;;;;;;3.30;0.60;;;;;;;;;;5050528;28;20036;-72
2023/11/18 03:01:06;;;;;;;2.70;0.85;;;;;;;;;;5050558;28;20378;-72
2023/11/18 03:04:10;;;;;;;3.70;0.77;;;;;;;;;;5051241;28;20029;-72
2023/11/18 03:07:14;;;;;;;3.85;0.88;;;;;;;;;;5078762;28;20052;-73
2023/11/18 03:10:21;;;;;;;5.25;0.70;;;14.10;82.10;;;;;;5091710;28;20063;-73
2023/11/18 03:13:26;;;;;;;2.10;0.75;;;;;;;;;;5091730;28;20047;-73
2023/11/18 03:16:31;;;;;;;1.92;0.70;;;;;;;;;;5091409;28;20035;-73
2023/11/18 03:19:35;;;;;;;3.75;0.70;;;;;;;;;;5091317;28;20043;-73
2023/11/18 03:22:39;;;;;;;3.95;0.77;;;;;;;;;;5078554;28;20028;-73
2023/11/18 03:25:46;;;;;;;3.08;0.60;;;14.20;83.30;;;;;;5091659;28;20468;-73
2023/11/18 03:28:50;;;;;;;3.10;0.93;;;;;;;;;;5091327;28;20051;-73
2023/11/18 03:31:54;;;;;;;5.10;1.08;;;;;;;;;;5091423;28;20472;-73
2023/11/18 03:34:59;;;;;;;2.13;0.90;;;;;;;;;;5078882;28;20039;-73
2023/11/18 03:38:03;;;;;;;4.28;1.17;;;;;;;;;;5078638;28;20036;-73
2023/11/18 03:41:08;;;;;;;1.92;0.63;;;;;;;;;;5091238;28;20044;-72
2023/11/18 03:44:12;;;;;;;6.93;0.70;;;;;;;;;;5078381;28;20475;-73
2023/11/18 03:47:17;;;;;;;5.28;0.77;;;;;;;;;;5067613;28;20044;-73
2023/11/18 03:50:22;;;;;;;4.05;0.70;;;;;;;;;;5091179;28;20622;-73
2023/11/18 03:53:26;;;;;;;2.38;0.65;;;;;;;;;;5091510;28;20044;-73
2023/11/18 03:56:30;;;;;;;3.08;0.82;;;;;;;;;;5090967;28;20032;-73
2023/11/18 03:59:35;;;;;;;2.80;0.85;;;;;;;;;;5078557;28;20476;-73
2023/11/18 04:02:40;;;;;;;1.27;0.47;;;;;;;;;;5091345;28;20044;-71
2023/11/18 04:05:44;;;;;;;3.35;0.65;;;;;;;;;;5090891;28;20036;-74
2023/11/18 04:08:51;;;;;;;1.98;0.90;;;14.70;83.10;;;;;;5090764;28;20033;-74
2023/11/18 04:11:55;;;;;;;4.63;0.93;;;;;;;;;;5091037;28;20047;-73
2023/11/18 04:15:00;;;;;;;2.83;0.63;;;;;;;;;;5078279;28;20036;-74
2023/11/18 04:18:06;;;;;;;5.25;0.82;;;;;;;;;;5090707;28;20368;-73
2023/11/18 04:21:10;;;;;;;3.97;0.63;;;;;;;;;;5078057;28;20044;-73
2023/11/18 04:24:15;;;;;;;3.20;0.68;;;;;;;;;;5090678;28;20040;-73
2023/11/18 04:27:19;;;;;;;3.70;0.73;;;;;;;;;;5090970;28;20389;-73
2023/11/18 04:30:23;;;;;;;6.07;1.42;;;;;;;;;;5090960;28;20044;-73
2023/11/18 04:33:29;;;;;;;4.03;0.70;;;;;;;;;;5090937;28;20036;-71
2023/11/18 04:36:33;;;;;;;4.35;0.88;;;;;;;;;;5094373;28;20369;-72
2023/11/18 04:39:37;;;;;;;2.42;0.90;;;;;;;;;;5081953;28;20048;-72
2023/11/18 04:42:41;;;;;;;3.00;0.70;;;;;;;;;;5094575;28;20040;-73
2023/11/18 04:45:45;;;;;;;2.20;0.70;;;;;;;;;;5094534;28;20035;-72
2023/11/18 04:48:50;;;;;;;2.95;0.70;;;;;;;;;;5094055;28;20365;-72
2023/11/18 04:51:54;;;;;;;3.08;0.90;;;;;;;;;;5094374;28;20036;-72
2023/11/18 04:54:59;;;;;;;5.60;0.80;;;;;;;;;;5094299;28;20044;-72
2023/11/18 04:58:05;;;;;;;3.97;1.00;;;;;;;;;;5094149;28;20028;-73
2023/11/18 05:01:09;;;;;;;7.75;1.38;;;;;;;;;;5093786;28;20044;-73
2023/11/18 05:04:14;;;;;;;4.28;0.73;;;;;;;;;;5081471;28;20040;-72
2023/11/18 05:07:18;;;;;;;9.13;0.93;;;;;;;;;;5093355;28;20067;-74
2023/11/18 05:10:25;;;;;;;5.35;0.75;;;12.70;81.20;;;;;;5093572;28;20025;-72
2023/11/18 05:13:29;;;;;;;2.75;0.68;;;;;;;;;;5093758;28;20047;-73
2023/11/18 05:16:34;;;;;;;8.90;0.95;;;;;;;;;;5081408;28;20024;-72
2023/11/18 05:19:38;;;;;;;1.95;0.70;;;;;;;;;;5093493;28;20373;-73
2023/11/18 05:22:43;;;;;;;5.30;0.88;;;;;;;;;;5093569;28;20036;-73
2023/11/18 05:25:47;;;;;;;4.35;0.90;;;;;;;;;;5093870;28;20032;-72
2023/11/18 05:28:52;;;;;;;6.05;0.80;;;;;;;;;;5093346;28;20040;-72
2023/11/18 05:31:56;;;;;;;6.45;0.95;;;;;;;;;;5093670;28;20044;-73
2023/11/18 05:35:00;;;;;;;6.95;0.85;;;;;;;;;;5093550;28;20032;-73
2023/11/18 05:38:06;;;;;;;4.88;1.00;;;;;;;;;;5080599;28;20384;-73
2023/11/18 05:41:16;;;;;;;1.27;0.60;;;;;;;;;;5093358;28;20040;-73
2023/11/18 05:44:29;;;;;;;6.68;0.70;;;;;;;;;;5093142;28;20377;-73
2023/11/18 05:47:34;;;;;;;4.68;1.27;;;;;;;;;;5069271;28;20373;-72
2023/11/18 05:50:38;;;;;;;2.85;0.73;;;;;;;;;;5092833;28;20028;-72
2023/11/18 05:53:45;;;;;;;4.28;0.90;;;13.50;81.50;;;;;;5093012;28;20040;-72
2023/11/18 05:56:50;;;;;;;4.20;0.68;;;;;;;;;;5093175;28;20039;-72
2023/11/18 05:59:54;;;;;;;4.88;0.80;;;;;;;;;;5092658;28;20048;-72
2023/11/18 06:02:59;;;;;;;1.63;0.80;;;;;;;;;;5092992;28;20044;-73
2023/11/18 06:06:16;;;;;;;5.05;0.80;;;14.90;81.90;;;;;;5092546;28;20040;-73
2023/11/18 06:09:25;;;;;;;4.68;0.90;;;;;;;;;;5092531;28;20047;-71
2023/11/18 06:12:30;;;;;;;5.22;0.70;;;;;;;;;;5092467;28;20479;-72
2023/11/18 06:15:35;;;;;;;4.25;0.90;;;;;;;;;;5092718;28;20040;-72
2023/11/18 06:18:39;;;;;;;2.45;0.90;;;;;;;;;;5092253;28;20032;-72
2023/11/18 06:21:45;;;;;;;8.13;1.42;;;;;;;;;;5092213;28;20483;-72
2023/11/18 06:24:51;;;;;;;7.10;1.88;;;;;;;;;;5092417;28;20032;-73
2023/11/18 06:27:58;;;;;;;3.78;1.38;;;13.90;79.40;;;;;;5092263;28;20036;-73
2023/11/18 06:31:02;;;;;;;4.93;1.55;;;;;;;;;;5092537;28;20356;-74
2023/11/18 06:34:07;;;;;;;4.38;1.30;;;;;;;;;;5092335;28;20036;-73
2023/11/18 06:37:11;;;;;;;6.03;1.30;;;;;;;;;;5092341;28;20044;-73
2023/11/18 06:40:16;;;;;;;4.35;1.65;;;;;;;;;;5092108;28;20385;-74
2023/11/18 06:43:20;;;;;;;7.13;1.13;;;;;;;;;;5092231;28;20032;-73
2023/11/18 06:46:26;;;;;;;3.08;1.10;;;;;;;;;;5092213;28;20048;-72
2023/11/18 06:49:31;;;;;;;6.35;1.40;;;;;;;;;;5091612;28;20508;-74
2023/11/18 06:52:38;;;;;;;2.95;0.68;;;;;;;;;;5092084;28;20036;-73
2023/11/18 06:55:42;;;;;;;2.00;0.70;;;;;;;;;;5091923;28;20032;-73
2023/11/18 06:58:47;;;;;;;4.18;0.80;;;;;;;;;;5091645;28;20561;-73
2023/11/18 07:01:51;;;;;;;2.92;0.80;;;;;;;;;;5091607;28;20040;-73
2023/11/18 07:04:55;;;;;;;3.35;0.73;;;;;;;;;;5091632;28;20032;-73
2023/11/18 07:07:59;;;;;;;8.00;0.80;;;;;;;;;;5091280;28;20048;-73
2023/11/18 07:11:05;;;;;;;7.15;1.52;;;;;;;;;;5091533;28;20480;-73
2023/11/18 07:14:13;;;;;;;7.25;0.88;;;;;;;;;;5091751;28;20036;-73
2023/11/18 07:17:18;;;;;;;5.88;0.80;;;;;;;;;;5091302;28;20036;-69
2023/11/18 07:20:23;;;;;;;3.67;0.73;;;;;;;;;;5091352;28;20040;-72
2023/11/18 07:23:27;;;;;;;7.72;1.73;;;;;;;;;;5091319;28;20463;-69
2023/11/18 07:26:32;;;;;;;12.52;1.13;;;;;;;;;;5091179;28;20044;-72
2023/11/18 07:29:37;;;;;;;6.13;0.95;;;;;;;;;;5090857;28;20043;-71
2023/11/18 07:32:41;;;;;;;3.30;1.00;;;;;;;;;;5091372;28;20039;-71
2023/11/18 07:35:48;;;;;;;2.67;0.93;;;;;;;;;;5090900;28;20040;-69
2023/11/18 07:38:53;;;;;;;4.93;0.80;;;;;;;;;;5090664;28;20040;-71
2023/11/18 07:41:59;;;;;;;6.35;0.95;;;;;;;;;;5091072;28;20040;-70
2023/11/18 07:45:17;;;;;;;6.10;1.08;;;;;;;;;;5091095;28;20368;-71
2023/11/18 07:48:21;;;;;;;6.18;1.00;;;;;;;;;;5090746;28;20504;-71
2023/11/18 07:51:26;;;;;;;4.82;0.90;;;;;;;;;;5091093;28;20361;-71
2023/11/18 07:54:30;;;;;;;4.63;1.02;;;;;;;;;;5090810;28;20032;-73
2023/11/18 07:57:36;;;;;;;6.65;0.70;;;;;;;;;;5090616;28;20036;-68
2023/11/18 08:00:40;;;;;;;5.40;1.00;;;;;;;;;;5090616;28;20040;-70
2023/11/18 08:03:44;;;;;;;6.68;0.93;;;;;;;;;;5078305;28;20077;-72
2023/11/18 08:06:50;;;;;;;3.78;1.02;;;;;;;;;;5090513;28;20044;-69
2023/11/18 08:09:54;;;;;;;6.18;1.88;;;;;;;;;;5092050;28;20036;-71
2023/11/18 08:12:59;;;;;;;2.10;0.70;;;;;;;;;;5094566;28;20460;-70
2023/11/18 08:16:04;;;;;;;4.30;0.80;;;;;;;;;;5094726;28;20032;-69
2023/11/18 08:19:08;;;;;;;4.20;0.90;;;;;;;;;;5094528;28;20040;-71
2023/11/18 08:22:13;;;;;;;5.03;1.25;;;;;;;;;;5094468;28;20043;-72
2023/11/18 08:25:18;;;;;;;4.90;1.00;;;;;;;;;;5094758;28;20040;-72
2023/11/18 08:28:22;;;;;;;6.40;1.02;;;;;;;;;;5094671;28;20047;-71
2023/11/18 08:31:26;;;;;;;4.53;0.90;;;;;;;;;;5094519;28;20040;-72
2023/11/18 08:34:33;;;;;;;6.38;1.08;;;;;;;;;;5094706;28;20051;-72
2023/11/18 08:37:37;;;;;;;3.20;1.17;;;;;;;;;;5094118;28;20036;-73
2023/11/18 08:40:42;;;;;;;4.72;1.13;;;;;;;;;;5094227;28;20056;-73
2023/11/18 08:43:49;;;;;;;6.35;1.05;;;;;;;;;;5094501;28;20044;-69
2023/11/18 08:46:54;;;;;;;2.83;0.80;;;;;;;;;;5094362;28;20048;-71
2023/11/18 08:50:06;;;;;;;2.50;0.85;;;;;;;;;;5093994;28;20067;-69
2023/11/18 08:53:15;;;;;;;4.55;1.13;;;;;;;;;;5094348;28;20040;-68
2023/11/18 08:56:19;;;;;;;1.20;0.65;;;;;;;;;;5093911;28;20360;-71
2023/11/18 08:59:27;;;;;;;5.07;1.50;;;;;;;;;;5094229;28;20040;-68
2023/11/18 09:02:37;;;;;;;1.67;0.93;;;;;;;;;;5094214;28;20048;-67
2023/11/18 09:05:42;;;;;;;3.05;0.90;;;;;;;;;;5093973;28;20036;-69
2023/11/18 09:08:55;;;;;;;5.28;0.90;;;;;;;;;;5093468;28;20048;-70
2023/11/18 09:11:59;;;;;;;6.38;0.77;;;;;;;;;;5093560;28;20036;-69
2023/11/18 09:15:03;;;;;;;2.95;1.17;;;;;;;;;;5093533;28;20040;-70
2023/11/18 09:18:10;;;;;;;3.13;1.23;;;;;;;;;;5093684;28;20032;-70
2023/11/18 09:21:14;;;;;;;3.80;1.17;;;;;;;;;;5091886;28;20047;-69
2023/11/18 09:24:24;;;;;;;2.63;0.95;;;;;;;;;;5093323;28;20040;-70
2023/11/18 09:27:29;;;;;;;4.63;1.30;;;;;;;;;;5093357;28;20479;-70
2023/11/18 09:30:33;;;;;;;2.78;0.98;;;;;;;;;;5093372;28;20036;-70
2023/11/18 09:33:39;;;;;;;3.83;1.00;;;;;;;;;;5093126;28;20036;-69
2023/11/18 09:36:48;;;;;;;5.40;1.27;;;;;;;;;;5093421;28;20044;-70
2023/11/18 09:39:52;;;;;;;5.97;1.10;;;;;;;;;;5093124;28;20040;-70
2023/11/18 09:42:58;;;;;;;3.00;0.98;;;;;;;;;;5093142;28;20040;-72
2023/11/18 09:46:13;;;;;;;6.65;1.20;;;;;;;;;;5093092;28;20349;-71
2023/11/18 09:49:25;;;;;;;2.60;0.88;;;;;;;;;;5092773;28;20040;-70
2023/11/18 09:52:31;;;;;;;;;;;;;;;;;;5093507;28;20044;-68
2023/11/18 09:56:02;;;;;;;5.82;1.75;;;;;;;;;;5092884;28;19915;-70
2023/11/18 09:59:15;;;;;;;4.18;1.08;;;;;;;;;;5092825;28;20032;-70
2023/11/18 10:02:22;;;;;;;6.55;1.10;;;;;;;;;;5092682;28;20139;-69
2023/11/18 10:05:26;;;;;;;4.45;1.10;;;;;;;;;;5092412;28;20036;-70
2023/11/18 10:08:31;;;;;;;2.80;0.70;;;;;;;;;;5092587;28;20059;-69
2023/11/18 10:11:36;;;;;;;2.17;0.73;;;;;;;;;;5092423;28;20040;-70
2023/11/18 10:14:43;;;;;;;5.00;0.98;;;;;;;;;;5092137;28;20040;-69
2023/11/18 10:17:59;;;;;;;1.88;0.90;;;;;;;;;;5092162;28;20040;-69
2023/11/18 10:21:04;;;;;;;4.45;1.08;;;;;;;;;;5092253;28;20357;-71
2023/11/18 10:24:14;;;;;;;6.57;1.10;;;;;;;;;;5092348;28;20044;-69
2023/11/18 10:27:19;;;;;;;3.13;0.93;;;;;;;;;;5092174;28;20052;-69
2023/11/18 10:30:25;;;;;;;7.25;1.20;;;;;;;;;;5092281;28;20040;-71
2023/11/18 10:33:30;;;;;;;4.72;1.20;;;;;;;;;;5091921;28;20035;-71
2023/11/18 10:36:38;;;;;;;5.40;1.20;;;;;;;;;;5092095;28;20040;-68
2023/11/18 10:39:46;;;;;;;4.45;1.13;;;18.50;67.40;;;;;;5079624;28;20484;-68
2023/11/18 10:42:52;;;;;;;2.15;0.90;;;;;;;;;;5092245;28;20066;-70
2023/11/18 10:46:15;;;;;;;5.95;1.13;;;;;;;;;;5092253;28;20357;-68
2023/11/18 10:49:23;;;;;;;5.38;1.00;;;21.50;67.50;;;;;;5092109;28;20048;-68
2023/11/18 10:52:34;;;;;;;2.08;0.85;;;;;;;;;;5091897;28;20043;-70
2023/11/18 10:55:40;;;;;;;3.20;0.93;;;;;;;;;;5091428;28;20036;-68
2023/11/18 10:58:45;;;;;;;4.40;1.35;;;;;;;;;;5091590;28;20036;-68
2023/11/18 11:01:51;;;;;;;4.10;1.05;;;;;;;;;;5091239;28;20060;-69
2023/11/18 11:04:58;;;;;;;5.45;1.20;;;;;;;;;;5091814;28;20036;-68
2023/11/18 11:08:05;;;;;;;4.40;1.00;;;;;;;;;;5090122;28;20056;-70
2023/11/18 11:11:09;;;;;;;8.77;1.27;;;;;;;;;;5091705;28;20036;-69
2023/11/18 11:14:18;;;;;;;6.07;1.50;;;;;;;;;;5091309;28;20400;-69
2023/11/18 11:17:29;;;;;;;2.58;1.23;;;;;;;;;;5090958;28;20040;-69
2023/11/18 11:20:35;;;;;;;6.82;1.05;;;;;;;;;;5091198;28;20056;-69
2023/11/18 11:23:53;;;;;;;5.75;1.45;;;;;;;;;;5091397;28;20040;-70
2023/11/18 11:27:17;;;;;;;7.78;2.00;;;17.10;66.70;;;;;;5090934;28;20039;-69
2023/11/18 11:30:25;;;;;;;7.32;1.58;;;;;;;;;;5091244;28;20051;-68
2023/11/18 11:33:36;;;;;;;3.35;0.85;;;;;;;;;;5090990;28;20032;-69
2023/11/18 11:36:48;;;;;;;5.45;1.15;;;;;;;;;;5078660;28;20036;-69
2023/11/18 11:39:54;;;;;;;3.55;1.27;;;;;;;;;;5091040;28;20040;-69
2023/11/18 11:43:01;;;;;;;3.97;1.08;;;;;;;;;;5091055;28;20036;-69
2023/11/18 11:46:10;;;;;;;5.10;1.02;;;;;;;;;;5090695;28;20036;-69
2023/11/18 11:49:27;;;;;;;3.42;1.05;;;;;;;;;;5090905;28;20035;-68
2023/11/18 11:52:37;;;;;;;5.53;1.00;;;;;;;;;;5091112;28;20032;-67
2023/11/18 11:55:52;;;;;;;5.68;1.50;;;;;;;;;;5091052;28;20040;-67
2023/11/18 11:58:59;;;;;;;3.95;1.25;;;;;;;;;;5090845;28;20040;-67
2023/11/18 12:02:07;;;;;;;4.93;1.00;;;;;;;;;;5090889;28;20044;-67
2023/11/18 12:05:19;;;;;;;6.45;0.90;;;19.90;69.30;;;;;;5090913;28;20032;-68
2023/11/18 12:08:23;;;;;;;;;;;;;;;;;;5091263;28;20071;-68
2023/11/18 12:11:32;;;;;;;4.93;1.10;;;17.90;68.70;;;;;;5090333;28;19931;-68
2023/11/18 12:14:50;;;;;;;5.68;1.13;;;;;;;;;;5090407;28;20043;-68
2023/11/18 12:18:00;;;;;;;6.95;1.02;;;;;;;;;;5090634;28;20044;-68
2023/11/18 12:21:04;;;;;;;7.00;1.15;;;;;;;;;;5090472;28;20048;-68
2023/11/18 12:24:18;;;;;;;3.50;0.88;;;;;;;;;;5078178;28;20488;-68
2023/11/18 12:27:55;;;;;;;2.38;1.17;;;;;;;;;;5090435;28;20032;-68
2023/11/18 12:31:05;;;;;;;4.60;1.33;;;;;;;;;;5084140;28;20036;-68
2023/11/18 12:34:09;;;;;;;2.88;1.08;;;;;;;;;;5090738;28;20032;-67
2023/11/18 12:37:45;;;;;;;3.42;1.50;;;17.90;68.00;;;;;;5090357;28;20040;-70
2023/11/18 12:40:56;;;;;;;8.05;1.10;;;16.50;66.50;;;;;;5090290;28;20055;-69
2023/11/18 12:44:18;;;;;;;3.85;1.00;;;;;;;;;;5090660;28;20407;-68
2023/11/18 12:47:28;;;;;;;3.55;1.10;;;;;;;;;;5090595;28;20335;-69
2023/11/18 12:50:35;;;;;;;7.05;1.13;;;;;;;;;;5090453;28;20036;-69
2023/11/18 12:53:39;;;;;;;9.15;1.20;;;;;;;;;;5090721;28;20036;-68
2023/11/18 12:56:46;;;;;;;7.20;1.52;;;;;;;;;;5092952;28;20036;-68
2023/11/18 12:59:51;;;;;;;3.58;1.10;;;;;;;;;;5094324;28;20036;-69
2023/11/18 13:02:57;;;;;;;6.13;1.08;;;;;;;;;;5094189;28;20040;-68
2023/11/18 13:06:05;;;;;;;6.47;1.13;;;;;;;;;;5093958;28;20362;-68
2023/11/18 13:09:10;;;;;;;4.78;0.98;;;;;;;;;;5093937;28;20397;-68
2023/11/18 13:12:15;;;;;;;6.60;1.70;;;;;;;;;;5093794;28;20036;-68
2023/11/18 13:15:20;;;;;;;5.78;1.20;;;;;;;;;;5093911;28;20032;-68
2023/11/18 13:18:26;;;;;;;6.10;1.20;;;;;;;;;;5093686;28;20040;-68
2023/11/18 13:21:31;;;;;;;3.97;1.00;;;;;;;;;;5093526;28;20051;-67
2023/11/18 13:24:44;;;;;;;5.53;1.10;;;17.70;67.20;;;;;;5093709;28;20044;-69
2023/11/18 13:27:49;;;;;;;6.32;1.27;;;;;;;;;;5093666;28;20055;-68
2023/11/18 13:30:53;;;;;;;4.60;1.20;;;;;;;;;;5093438;28;20033;-69
2023/11/18 13:33:58;;;;;;;12.60;4.28;;;;;;;;;;5093559;28;20044;-68
2023/11/18 13:37:03;;;;;;;4.15;1.30;;;;;;;;;;5093304;28;20052;-68
2023/11/18 13:40:07;;;;;;;4.95;1.27;;;;;;;;;;5093280;28;20044;-69
2023/11/18 13:43:11;;;;;;;2.00;0.90;;;;;;;;;;5093507;28;20036;-70
2023/11/18 13:46:19;;;;;;;6.47;1.33;;;;;;;;;;5093356;28;20475;-72
2023/11/18 13:49:28;;;;;;;10.95;1.10;;;;;;;;;;5093363;28;20036;-73
2023/11/18 13:52:32;;;;;;;3.67;1.30;;;;;;;;;;5093295;28;20052;-72
2023/11/18 13:55:38;;;;;;;3.25;1.30;;;;;;;;;;5093582;28;20048;-70
2023/11/18 13:58:45;;;;;;;3.65;1.10;;;;;;;;;;5080364;28;20032;-70
2023/11/18 14:01:49;;;;;;;3.08;1.10;;;;;;;;;;5093823;28;20044;-69
2023/11/18 14:04:55;;;;;;;9.00;1.40;;;;;;;;;;5093028;28;20365;-73
2023/11/18 14:08:00;;;;;;;7.18;1.48;;;;;;;;;;5091162;28;20044;-74
2023/11/18 14:11:05;;;;;;;5.40;1.52;;;;;;;;;;5092820;28;20032;-74
2023/11/18 14:14:09;;;;;;;3.83;1.40;;;;;;;;;;5092906;28;20373;-75
2023/11/18 14:17:16;;;;;;;4.00;1.23;;;;;;;;;;5092476;28;20036;-74
2023/11/18 14:20:22;;;;;;;5.45;1.45;;;;;;;;;;5092574;28;20044;-74
2023/11/18 14:23:26;;;;;;;5.68;1.20;;;;;;;;;;5092684;28;20040;-74
2023/11/18 14:26:31;;;;;;;2.65;1.20;;;;;;;;;;5092602;28;20028;-73
2023/11/18 14:29:36;;;;;;;3.63;1.20;;;;;;;;;;5092245;28;20365;-72
2023/11/18 14:32:40;;;;;;;3.50;1.60;;;;;;;;;;5092448;28;20031;-73
2023/11/18 14:35:46;;;;;;;3.58;1.70;;;;;;;;;;5092474;28;20480;-74
2023/11/18 14:38:50;;;;;;;3.08;1.33;;;;;;;;;;5092298;28;20369;-73
2023/11/18 14:41:55;;;;;;;4.47;1.33;;;;;;;;;;5091974;28;20044;-73
2023/11/18 14:44:59;;;;;;;5.07;1.90;;;;;;;;;;5092287;28;20036;-73
2023/11/18 14:48:05;;;;;;;3.33;1.40;;;17.20;68.20;;;;;;5091768;28;20032;-73
2023/11/18 14:51:10;;;;;;;5.95;1.80;;;;;;;;;;5092186;28;20036;-74
2023/11/18 14:54:15;;;;;;;8.27;1.52;;;;;;;;;;5091498;28;20043;-74
2023/11/18 14:57:19;;;;;;;4.10;1.60;;;;;;;;;;5091930;28;20028;-74
2023/11/18 15:00:26;;;;;;;9.32;1.98;;;;;;;;;;5091750;28;20040;-73
2023/11/18 15:03:31;;;;;;;5.80;1.73;;;;;;;;;;5091596;28;20032;-73
2023/11/18 15:06:36;;;;;;;3.72;2.25;;;;;;;;;;5091725;28;20384;-74
2023/11/18 15:09:41;;;;;;;4.95;1.80;;;;;;;;;;5091672;28;20040;-75
2023/11/18 15:12:54;;;;;;;5.25;2.00;;;16.70;68.30;;;;;;5091228;28;20040;-73
2023/11/18 15:15:58;;;;;;;8.25;2.00;;;;;;;;;;5089910;28;20059;-74
2023/11/18 15:19:02;;;;;;;6.97;2.13;;;;;;;;;;5091268;28;20032;-74
2023/11/18 15:22:07;;;;;;;8.15;2.00;;;;;;;;;;5091228;28;20036;-74
2023/11/18 15:25:12;;;;;;;10.27;2.80;;;;;;;;;;5091309;28;20040;-74
2023/11/18 15:28:18;;;;;;;6.05;2.58;;;;;;;;;;5091059;28;20047;-74
2023/11/18 15:31:24;;;;;;;5.10;1.98;;;;;;;;;;5091336;28;20032;-74
2023/11/18 15:34:28;;;;;;;7.32;2.00;;;;;;;;;;5090968;28;20043;-74
2023/11/18 15:37:32;;;;;;;4.55;1.80;;;;;;;;;;5091311;28;20199;-74
2023/11/18 15:40:37;;;;;;;7.30;2.20;;;;;;;;;;5091274;28;20389;-74
2023/11/18 15:43:41;;;;;;;3.33;2.25;;;;;;;;;;5091360;28;20649;-74
2023/11/18 15:46:49;;;;;;;6.13;3.53;;;16.30;69.20;;;;;;5091209;28;20044;-74
2023/11/18 15:49:53;;;;;;;11.15;4.57;;;;;;;;;;5091028;28;20494;-74
2023/11/18 15:52:57;;;;;;;10.65;4.50;;;;;;;;;;5090847;28;20047;-74
2023/11/18 15:56:04;;;;;;;15.93;5.22;;;;;;;;;;5090976;28;20044;-74
2023/11/18 15:59:08;;;;;;;12.40;5.00;;;;;;;;;;5090806;28;20036;-74
2023/11/18 16:02:14;;;;;;;9.57;4.60;;;;;;;;;;5090571;28;20040;-74
2023/11/18 16:05:20;;;;;;;10.88;4.53;;;;;;;;;;5090835;28;20365;-74
2023/11/18 16:08:25;;;;;;;11.73;5.72;;;;;;;;;;5078430;28;20090;-74
2023/11/18 16:11:30;;;;;;;9.50;5.55;;;;;;;;;;5091121;28;20040;-73
2023/11/18 16:14:35;;;;;;;18.67;6.15;;;;;;;;;;5091053;28;20036;-73
2023/11/18 16:17:40;;;;;;;12.63;6.47;;;;;;;;;;5090708;28;20032;-74
2023/11/18 16:20:44;;;;;;;29.65;11.45;;;;;;;;;;5090828;28;20036;-74
2023/11/18 16:23:49;;;;;;;67.85;25.63;;;;;;;;;;5090632;28;20051;-74
2023/11/18 16:26:53;;;;;;;70.22;28.58;;;;;;;;;;5090666;28;20047;-73
2023/11/18 16:29:58;;;;;;;60.28;21.90;;;;;;;;;;5090688;28;20047;-73
2023/11/18 16:33:03;;;;;;;24.98;8.48;;;;;;;;;;5094566;28;20054;-74
2023/11/18 16:36:07;;;;;;;17.42;6.15;;;;;;;;;;5094364;28;20036;-74
2023/11/18 16:39:12;;;;;;;23.85;7.50;;;;;;;;;;5094269;28;20032;-75
2023/11/18 16:42:18;;;;;;;33.95;11.38;;;;;;;;;;5093906;28;20044;-76
2023/11/18 16:45:23;;;;;;;37.92;10.45;;;;;;;;;;5094502;28;20678;-74
2023/11/18 16:48:29;;;;;;;27.73;10.18;;;;;;;;;;5094187;28;20047;-75
2023/11/18 16:51:33;;;;;;;29.27;11.55;;;;;;;;;;5081459;28;20043;-74
2023/11/18 16:54:37;;;;;;;36.42;14.85;;;;;;;;;;5094370;28;20105;-73
2023/11/18 16:57:42;;;;;;;46.90;18.10;;;;;;;;;;5093960;28;20047;-75
2023/11/18 17:00:46;;;;;;;54.78;20.15;;;;;;;;;;5093924;28;20403;-75
2023/11/18 17:03:51;;;;;;;47.42;18.85;;;;;;;;;;5094221;28;20043;-75
2023/11/18 17:06:55;;;;;;;36.80;17.83;;;;;;;;;;5093802;28;20055;-75
2023/11/18 17:10:00;;;;;;;42.72;21.80;;;;;;;;;;5093942;28;20035;-75
2023/11/18 17:13:08;;;;;;;52.70;29.73;;;;;;;;;;5093585;28;20368;-75
2023/11/18 17:16:12;;;;;;;47.58;28.70;;;;;;;;;;5081132;28;20055;-75
2023/11/18 17:19:16;;;;;;;49.72;30.20;;;;;;;;;;5093383;28;20043;-74
2023/11/18 17:22:21;;;;;;;62.75;34.28;;;;;;;;;;5093144;28;20055;-74
2023/11/18 17:25:25;;;;;;;59.83;30.58;;;;;;;;;;5093576;28;20043;-73
2023/11/18 17:28:30;;;;;;;65.35;30.70;;;;;;;;;;5093383;28;20043;-74
2023/11/18 17:31:34;;;;;;;54.60;29.33;;;;;;;;;;5093364;28;20498;-73
2023/11/18 17:34:38;;;;;;;56.47;30.73;;;;;;;;;;5093153;28;20039;-73
2023/11/18 17:37:44;;;;;;;50.35;27.70;;;13.40;84.90;;;;;;5093517;28;20043;-74
2023/11/18 17:40:48;;;;;;;49.33;29.83;;;;;;;;;;5093136;28;20051;-74
2023/11/18 17:43:53;;;;;;;49.22;29.65;;;;;;;;;;5092083;28;20403;-74
2023/11/18 17:46:57;;;;;;;57.88;32.67;;;;;;;;;;5092790;28;20043;-73
2023/11/18 17:50:02;;;;;;;63.47;34.67;;;;;;;;;;5092761;28;20039;-73
2023/11/18 17:53:08;;;;;;;52.90;32.90;;;;;;;;;;5092723;28;20146;-72
2023/11/18 17:56:13;;;;;;;58.17;34.10;;;17.90;89.60;;;;;;5093105;28;20043;-73
2023/11/18 17:59:19;;;;;;;55.10;33.45;;;;;;;;;;5093156;28;20051;-73
2023/11/18 18:02:23;;;;;;;55.90;31.60;;;;;;;;;;5080185;28;20051;-73
2023/11/18 18:05:27;;;;;;;58.90;32.63;;;;;;;;;;5092494;28;20040;-73
2023/11/18 18:08:34;;;;;;;63.45;33.88;;;;;;;;;;5052588;28;20047;-73
2023/11/18 18:11:39;;;;;;;52.33;30.73;;;;;;;;;;5052534;28;20044;-73
2023/11/18 18:14:43;;;;;;;64.50;36.30;;;;;;;;;;5052392;28;20511;-73
2023/11/18 18:17:47;;;;;;;60.90;33.63;;;;;;;;;;5052438;28;20389;-73
2023/11/18 18:20:51;;;;;;;52.22;29.17;;;;;;;;;;5052065;28;20056;-73